Time;durP1;ratioP1;P1;durP2;ratioP2;P2;SDS_P1;SDS_P2;PMS_P1;PMS_P2;Temp;Humidity;BMP_temperature;BMP_pressure;BME280_temperature;BME280_humidity;BME280_pressure;Samples;Min_cycle;Max_cycle;Signal;HPM_P1;HPM_P2
2021/07/24 00:01:55;;;;;;;31.47;17.40;;;24.00;45.30;;;;;;5024402;28;20497;-89
2021/07/24 00:04:22;;;;;;;29.30;15.60;;;23.60;46.30;;;;;;5027346;28;20505;-90
2021/07/24 00:06:49;;;;;;;26.13;14.43;;;23.80;46.20;;;;;;5025239;28;20504;-89
2021/07/24 00:09:16;;;;;;;25.80;14.83;;;23.80;45.90;;;;;;5021098;28;20450;-90
2021/07/24 00:11:44;;;;;;;26.23;16.00;;;23.90;46.10;;;;;;5022402;28;20620;-90
2021/07/24 00:14:11;;;;;;;21.00;13.20;;;24.00;45.70;;;;;;5024393;28;20604;-90
2021/07/24 00:16:38;;;;;;;25.93;13.90;;;24.10;45.80;;;;;;5032364;28;20458;-88
2021/07/24 00:19:05;;;;;;;28.87;16.17;;;24.00;45.60;;;;;;5037832;28;20445;-89
2021/07/24 00:21:32;;;;;;;19.53;12.23;;;23.80;45.80;;;;;;5024110;28;20489;-89
2021/07/24 00:23:59;;;;;;;24.13;14.17;;;23.90;46.80;;;;;;5038123;28;20517;-89
2021/07/24 00:26:26;;;;;;;20.20;12.60;;;23.60;46.40;;;;;;5038466;28;20438;-89
2021/07/24 00:28:54;;;;;;;20.43;13.73;;;23.70;46.80;;;;;;5039205;28;20442;-87
2021/07/24 00:31:21;;;;;;;28.37;18.60;;;23.80;46.10;;;;;;5037483;28;20474;-88
2021/07/24 00:33:48;;;;;;;18.60;13.10;;;23.70;46.50;;;;;;5038558;28;20484;-89
2021/07/24 00:36:15;;;;;;;24.77;15.17;;;23.80;46.60;;;;;;5039088;28;20464;-89
2021/07/24 00:38:42;;;;;;;24.13;15.80;;;23.80;45.90;;;;;;5038597;28;20453;-89
2021/07/24 00:41:15;;;;;;;23.57;12.50;;;23.70;46.40;;;;;;5037456;28;20419;-89
2021/07/24 00:43:46;;;;;;;20.20;13.83;;;23.70;46.00;;;;;;5026919;28;20451;-89
2021/07/24 00:46:15;;;;;;;27.27;14.93;;;23.60;46.40;;;;;;5026514;28;20597;-90
2021/07/24 00:48:43;;;;;;;26.67;15.13;;;23.50;46.60;;;;;;5025534;28;20434;-90
2021/07/24 00:51:11;;;;;;;24.63;16.10;;;23.30;47.40;;;;;;5024743;28;20493;-90
2021/07/24 00:53:38;;;;;;;31.63;18.93;;;23.10;47.30;;;;;;5025925;28;20454;-90
2021/07/24 00:56:06;;;;;;;24.70;12.70;;;23.30;47.50;;;;;;5023697;28;20458;-90
2021/07/24 00:58:36;;;;;;;29.07;15.67;;;23.40;47.60;;;;;;5022737;28;20437;-90
2021/07/24 01:01:05;;;;;;;29.40;14.80;;;23.30;47.20;;;;;;5020034;28;20434;-90
2021/07/24 01:03:33;;;;;;;22.10;14.30;;;23.10;47.30;;;;;;5017929;28;20956;-90
2021/07/24 01:06:01;;;;;;;36.30;15.53;;;23.00;47.40;;;;;;5018271;28;20481;-90
2021/07/24 01:08:32;;;;;;;27.37;13.27;;;23.00;47.30;;;;;;5018338;28;20474;-90
2021/07/24 01:10:59;;;;;;;20.73;13.63;;;22.70;48.60;;;;;;5019339;28;20466;-90
2021/07/24 01:13:26;;;;;;;17.23;12.00;;;23.00;48.00;;;;;;5017961;28;20895;-90
2021/07/24 01:15:54;;;;;;;17.90;11.90;;;23.30;47.50;;;;;;5018383;28;20486;-90
2021/07/24 01:18:21;;;;;;;22.20;14.53;;;23.50;47.60;;;;;;5018818;28;20438;-90
2021/07/24 01:20:52;;;;;;;20.00;12.43;;;23.30;46.80;;;;;;5019017;28;20481;-90
2021/07/24 01:23:21;;;;;;;18.60;11.63;;;23.40;47.60;;;;;;5018618;28;20481;-90
2021/07/24 01:25:49;;;;;;;22.23;12.27;;;23.50;46.60;;;;;;5020461;28;20442;-90
2021/07/24 01:28:24;;;;;;;26.87;14.00;;;23.50;46.60;;;;;;5018927;28;20458;-90
2021/07/24 01:30:51;;;;;;;16.40;10.70;;;23.30;46.60;;;;;;5016011;28;20441;-90
2021/07/24 01:33:18;;;;;;;25.40;13.80;;;23.40;47.60;;;;;;5016025;28;20470;-90
2021/07/24 01:35:46;;;;;;;30.97;14.03;;;23.60;46.50;;;;;;5017269;28;20542;-90
2021/07/24 01:38:13;;;;;;;27.37;14.50;;;23.40;46.30;;;;;;5021011;28;20446;-89
2021/07/24 01:40:41;;;;;;;18.37;11.93;;;23.10;47.30;;;;;;5033689;28;20511;-89
2021/07/24 01:43:08;;;;;;;18.90;13.40;;;23.40;47.60;;;;;;5023770;28;20889;-90
2021/07/24 01:45:36;;;;;;;14.77;11.20;;;23.10;47.30;;;;;;5017305;28;20475;-90
2021/07/24 01:48:07;;;;;;;20.07;14.13;;;23.10;47.30;;;;;;5018592;28;20462;-90
2021/07/24 01:53:19;;;;;;;45.93;17.00;;;23.20;47.40;;;;;;5017082;28;20644;-90
2021/07/24 01:55:52;;;;;;;18.87;12.40;;;23.20;47.10;;;;;;5016227;28;20490;-90
2021/07/24 01:58:24;;;;;;;20.40;13.40;;;23.10;47.40;;;;;;5021471;28;20552;-90
2021/07/24 02:00:53;;;;;;;20.10;12.40;;;23.00;47.30;;;;;;5035258;28;20468;-90
2021/07/24 02:03:25;;;;;;;20.87;12.40;;;23.30;47.50;;;;;;5034953;28;20499;-90
2021/07/24 02:05:53;;;;;;;19.27;11.97;;;23.40;47.00;;;;;;5022926;28;20539;-90
2021/07/24 02:08:22;;;;;;;22.80;12.20;;;23.60;46.70;;;;;;5014551;28;20482;-90
2021/07/24 02:10:51;;;;;;;21.23;13.37;;;23.50;47.10;;;;;;5013503;28;20493;-90
2021/07/24 02:13:20;;;;;;;18.70;13.23;;;23.60;46.60;;;;;;5014814;28;20529;-89
2021/07/24 02:15:47;;;;;;;19.43;12.87;;;23.70;46.60;;;;;;5014340;28;20478;-89
2021/07/24 02:18:17;;;;;;;23.63;12.77;;;23.80;46.40;;;;;;5015081;28;20512;-89
2021/07/24 02:20:46;;;;;;;20.83;13.20;;;23.80;46.30;;;;;;5015292;28;20525;-89
2021/07/24 02:23:13;;;;;;;21.50;12.73;;;23.90;46.00;;;;;;5014567;28;20505;-89
2021/07/24 02:25:40;;;;;;;22.23;12.90;;;23.80;45.60;;;;;;5014065;28;20627;-89
2021/07/24 02:28:09;;;;;;;22.17;14.77;;;23.70;45.60;;;;;;5014137;28;20538;-89
2021/07/24 02:30:36;;;;;;;23.27;12.60;;;23.20;46.80;;;;;;5014308;28;20450;-89
2021/07/24 02:33:03;;;;;;;22.40;14.07;;;22.70;47.30;;;;;;5014384;28;20505;-89
2021/07/24 02:35:30;;;;;;;26.17;13.90;;;22.40;48.40;;;;;;5013655;28;20525;-89
2021/07/24 02:37:57;;;;;;;21.00;13.27;;;22.20;49.00;;;;;;5014222;28;20888;-89
2021/07/24 02:40:24;;;;;;;20.60;13.27;;;22.40;48.60;;;;;;5015759;28;20452;-89
2021/07/24 02:42:51;;;;;;;22.43;13.37;;;22.40;48.70;;;;;;5014563;28;20482;-89
2021/07/24 02:45:19;;;;;;;20.23;13.70;;;22.10;49.30;;;;;;5013947;28;20492;-90
2021/07/24 02:47:46;;;;;;;29.97;13.77;;;22.20;49.30;;;;;;5006060;28;20458;-89
2021/07/24 02:50:13;;;;;;;28.20;13.27;;;22.10;49.70;;;;;;5014388;28;20458;-89
2021/07/24 02:52:40;;;;;;;23.10;13.50;;;22.00;50.10;;;;;;5014257;28;20556;-89
2021/07/24 02:55:09;;;;;;;20.27;12.60;;;22.00;50.10;;;;;;5013990;28;21001;-89
2021/07/24 02:57:36;;;;;;;22.23;13.97;;;21.70;50.80;;;;;;5014255;28;20520;-89
2021/07/24 03:00:03;;;;;;;43.77;15.07;;;21.60;51.40;;;;;;5014278;28;20505;-89
2021/07/24 03:02:31;;;;;;;33.60;16.40;;;21.40;51.90;;;;;;5012985;28;20480;-89
2021/07/24 03:04:58;;;;;;;27.53;15.40;;;21.40;52.00;;;;;;5013363;28;20490;-89
2021/07/24 03:07:26;;;;;;;25.70;15.30;;;21.30;52.20;;;;;;5013284;28;20458;-88
2021/07/24 03:09:52;;;;;;;27.03;14.60;;;21.90;51.40;;;;;;5013754;28;20481;-89
2021/07/24 03:12:19;;;;;;;27.20;14.53;;;22.20;50.10;;;;;;5013760;28;20818;-89
2021/07/24 03:14:47;;;;;;;28.63;14.10;;;22.40;49.70;;;;;;5016629;28;20450;-89
2021/07/24 03:17:14;;;;;;;29.10;16.33;;;22.50;49.30;;;;;;5013825;28;20442;-89
2021/07/24 03:19:42;;;;;;;24.47;14.90;;;22.60;49.10;;;;;;5013742;28;20438;-89
2021/07/24 03:22:09;;;;;;;16.37;11.70;;;22.70;49.00;;;;;;5014410;28;20528;-89
2021/07/24 03:24:36;;;;;;;20.47;12.63;;;23.00;48.50;;;;;;5017088;28;20559;-90
2021/07/24 03:27:03;;;;;;;17.97;12.70;;;23.10;48.10;;;;;;5016112;28;20494;-89
2021/07/24 03:29:30;;;;;;;25.73;15.50;;;23.30;47.50;;;;;;5017347;28;20919;-89
2021/07/24 03:31:57;;;;;;;24.67;15.87;;;23.40;47.60;;;;;;5016680;28;21019;-89
2021/07/24 03:34:24;;;;;;;22.87;13.20;;;23.30;47.50;;;;;;5015946;28;20911;-89
2021/07/24 03:36:52;;;;;;;23.93;16.20;;;23.20;47.50;;;;;;5016129;28;20811;-89
2021/07/24 03:39:20;;;;;;;21.50;14.67;;;23.50;47.70;;;;;;5016829;28;20449;-90
2021/07/24 03:41:46;;;;;;;23.90;14.37;;;23.40;47.60;;;;;;5025803;28;20465;-89
2021/07/24 03:44:13;;;;;;;32.87;15.90;;;23.40;47.60;;;;;;5027724;28;21021;-89
2021/07/24 03:46:41;;;;;;;28.90;16.67;;;23.50;47.70;;;;;;5027330;28;20453;-89
2021/07/24 03:49:08;;;;;;;35.10;16.93;;;23.50;47.70;;;;;;5028611;28;20462;-89
2021/07/24 03:51:35;;;;;;;28.67;15.77;;;23.60;47.10;;;;;;5025961;28;20466;-89
2021/07/24 03:54:03;;;;;;;21.60;14.00;;;23.60;47.20;;;;;;5024596;28;20449;-89
2021/07/24 03:56:30;;;;;;;26.13;17.13;;;23.50;47.40;;;;;;5019174;28;20454;-89
2021/07/24 03:58:57;;;;;;;33.60;15.83;;;23.60;47.00;;;;;;5020263;28;20518;-89
2021/07/24 04:01:26;;;;;;;28.80;13.80;;;23.80;46.90;;;;;;5051953;23;21428;-87
2021/07/24 04:03:53;;;;;;;30.53;16.53;;;23.80;46.70;;;;;;5030828;28;20567;-86
2021/07/24 04:06:22;;;;;;;25.43;15.20;;;23.80;46.60;;;;;;5036115;28;20955;-86
2021/07/24 04:08:50;;;;;;;25.93;15.47;;;23.60;46.90;;;;;;5034529;28;20450;-86
2021/07/24 04:11:20;;;;;;;28.13;16.43;;;23.40;47.60;;;;;;5038966;28;20461;-85
2021/07/24 04:13:47;;;;;;;27.37;16.10;;;23.50;47.70;;;;;;5028778;28;20453;-86
2021/07/24 04:16:14;;;;;;;29.43;17.83;;;23.30;47.50;;;;;;5015248;28;20520;-85
2021/07/24 04:18:41;;;;;;;25.23;16.40;;;23.20;47.50;;;;;;5029230;28;20462;-86
2021/07/24 04:21:09;;;;;;;30.03;16.97;;;23.10;48.30;;;;;;5021311;28;20458;-87
2021/07/24 04:23:35;;;;;;;33.77;17.23;;;22.90;48.80;;;;;;5027382;28;20459;-87
2021/07/24 04:26:02;;;;;;;25.50;15.80;;;22.90;49.00;;;;;;5016234;28;20526;-86
2021/07/24 04:28:31;;;;;;;26.50;15.90;;;22.80;49.30;;;;;;5024446;28;20915;-87
2021/07/24 04:30:59;;;;;;;29.10;15.70;;;22.60;49.30;;;;;;5023489;28;20438;-86
2021/07/24 04:33:26;;;;;;;25.97;15.00;;;22.60;49.40;;;;;;5034067;28;20501;-86
2021/07/24 04:35:53;;;;;;;22.60;15.00;;;22.80;49.30;;;;;;5024091;28;20811;-87
2021/07/24 04:38:19;;;;;;;22.20;13.97;;;23.10;48.80;;;;;;5027658;28;20430;-87
2021/07/24 04:40:46;;;;;;;30.27;15.97;;;23.40;47.60;;;;;;5024113;28;20438;-89
2021/07/24 04:43:14;;;;;;;20.70;13.87;;;23.40;47.60;;;;;;5023275;28;20466;-87
2021/07/24 04:45:43;;;;;;;24.50;15.67;;;23.70;47.80;;;;;;5030971;28;20485;-88
2021/07/24 04:48:10;;;;;;;22.77;13.37;;;23.70;47.40;;;;;;5031561;28;20430;-87
2021/07/24 04:50:42;;;;;;;22.10;14.30;;;23.70;47.20;;;;;;5031667;28;20438;-87
2021/07/24 04:53:09;;;;;;;22.43;13.90;;;23.80;46.80;;;;;;5031214;28;20530;-87
2021/07/24 04:55:38;;;;;;;26.70;14.60;;;23.70;47.00;;;;;;5022979;28;20470;-87
2021/07/24 04:58:07;;;;;;;33.83;15.40;;;23.70;47.00;;;;;;5022871;28;20500;-88
2021/07/24 05:00:36;;;;;;;23.10;13.07;;;23.40;48.30;;;;;;5022852;28;20473;-88
2021/07/24 05:03:05;;;;;;;29.20;16.10;;;23.60;47.50;;;;;;5020011;28;20481;-88
2021/07/24 05:05:32;;;;;;;20.83;15.17;;;23.30;47.50;;;;;;5019062;28;20573;-88
2021/07/24 05:07:59;;;;;;;20.50;12.07;;;23.20;47.60;;;;;;5019139;28;20477;-88
2021/07/24 05:10:26;;;;;;;23.37;14.60;;;23.50;47.70;;;;;;5018569;28;20541;-87
2021/07/24 05:12:53;;;;;;;25.07;15.00;;;23.60;47.80;;;;;;5020801;28;20513;-88
2021/07/24 05:15:20;;;;;;;26.07;15.70;;;23.40;47.60;;;;;;5019011;28;20528;-88
2021/07/24 05:17:47;;;;;;;24.10;14.70;;;23.30;48.00;;;;;;5022685;28;20816;-87
2021/07/24 05:20:15;;;;;;;22.47;14.47;;;23.50;47.70;;;;;;5019707;28;20446;-88
2021/07/24 05:22:42;;;;;;;38.13;16.60;;;23.80;48.00;;;;;;5021438;28;20477;-88
2021/07/24 05:25:11;;;;;;;24.97;14.70;;;23.50;47.70;;;;;;5019425;28;21078;-88
2021/07/24 05:27:38;;;;;;;26.33;16.00;;;23.60;47.80;;;;;;5018332;28;20443;-87
2021/07/24 05:30:06;;;;;;;32.20;15.30;;;23.90;47.60;;;;;;5016657;28;20477;-88
2021/07/24 05:32:34;;;;;;;28.73;14.27;;;24.40;46.70;;;;;;5021636;28;20533;-88
2021/07/24 05:35:01;;;;;;;24.73;14.00;;;24.80;46.30;;;;;;5022577;28;20450;-87
2021/07/24 05:37:29;;;;;;;26.00;14.97;;;24.70;46.00;;;;;;5019866;28;20521;-87
2021/07/24 05:39:56;;;;;;;21.13;12.30;;;24.90;45.80;;;;;;5018874;28;20501;-88
2021/07/24 05:42:23;;;;;;;25.97;15.23;;;24.90;46.10;;;;;;5020911;28;20486;-88
2021/07/24 05:44:50;;;;;;;28.20;13.80;;;24.80;46.50;;;;;;5023920;28;20562;-87
2021/07/24 05:47:17;;;;;;;20.80;13.87;;;24.90;46.40;;;;;;5021513;28;20469;-87
2021/07/24 05:49:43;;;;;;;26.13;14.30;;;25.30;45.10;;;;;;5021227;28;20513;-87
2021/07/24 05:52:11;;;;;;;20.23;13.47;;;24.70;46.10;;;;;;5021276;28;20498;-87
2021/07/24 05:54:40;;;;;;;32.47;16.60;;;24.40;46.70;;;;;;5021181;28;20450;-87
2021/07/24 05:57:07;;;;;;;24.23;13.87;;;24.40;46.90;;;;;;5023854;28;20433;-87
2021/07/24 05:59:35;;;;;;;21.87;12.70;;;24.10;47.40;;;;;;5019241;28;20454;-89
2021/07/24 06:02:05;;;;;;;26.17;14.90;;;24.70;46.40;;;;;;5021528;28;20466;-87
2021/07/24 06:04:32;;;;;;;26.20;14.33;;;24.10;47.40;;;;;;5022077;28;20449;-88
2021/07/24 06:06:59;;;;;;;22.53;13.87;;;23.70;48.60;;;;;;5019482;28;20477;-87
2021/07/24 06:09:26;;;;;;;22.67;14.30;;;24.30;47.70;;;;;;5021366;28;20437;-87
2021/07/24 06:11:54;;;;;;;24.23;13.67;;;23.80;48.00;;;;;;5019271;28;20955;-88
2021/07/24 06:14:22;;;;;;;23.33;15.47;;;24.30;47.80;;;;;;5020190;28;20460;-87
2021/07/24 06:16:49;;;;;;;31.23;13.67;;;24.20;48.10;;;;;;5020057;28;20482;-88
2021/07/24 06:19:16;;;;;;;23.00;14.67;;;24.10;48.30;;;;;;5021595;28;20456;-88
2021/07/24 06:21:43;;;;;;;20.90;13.47;;;23.90;48.10;;;;;;5020433;28;20494;-88
2021/07/24 06:24:10;;;;;;;22.17;12.87;;;23.90;48.90;;;;;;5020577;28;20441;-88
2021/07/24 06:26:38;;;;;;;23.33;15.70;;;24.10;48.30;;;;;;5019469;28;20477;-87
2021/07/24 06:29:06;;;;;;;35.37;14.90;;;24.30;48.40;;;;;;5018604;28;20457;-88
2021/07/24 06:31:34;;;;;;;32.03;15.23;;;24.30;48.40;;;;;;5017734;28;20497;-88
2021/07/24 06:34:02;;;;;;;23.17;14.20;;;24.40;48.10;;;;;;5018482;28;20457;-88
2021/07/24 06:36:29;;;;;;;29.43;15.73;;;24.50;47.60;;;;;;5017567;28;20438;-88
2021/07/24 06:38:57;;;;;;;22.50;13.53;;;24.60;47.30;;;;;;5017065;28;20438;-87
2021/07/24 06:41:26;;;;;;;25.00;16.27;;;24.80;46.60;;;;;;5017334;28;20498;-88
2021/07/24 06:43:54;;;;;;;23.63;14.40;;;25.10;46.00;;;;;;5016274;28;20456;-87
2021/07/24 06:46:23;;;;;;;27.00;15.00;;;25.50;45.30;;;;;;5016773;28;20536;-87
2021/07/24 06:48:50;;;;;;;25.80;15.00;;;26.00;44.30;;;;;;5017109;28;20518;-88
2021/07/24 06:51:17;;;;;;;25.30;14.13;;;25.90;45.10;;;;;;5016227;28;20462;-88
2021/07/24 06:53:44;;;;;;;20.90;13.70;;;25.80;45.00;;;;;;5017058;28;20454;-88
2021/07/24 06:56:11;;;;;;;23.67;14.80;;;25.90;45.50;;;;;;5019225;28;20480;-88
2021/07/24 06:58:38;;;;;;;27.00;14.10;;;25.70;45.10;;;;;;5021053;28;20434;-88
2021/07/24 07:01:07;;;;;;;27.30;14.40;;;25.50;45.80;;;;;;5022340;28;20456;-88
2021/07/24 07:03:36;;;;;;;24.50;15.47;;;25.40;46.30;;;;;;5021342;28;20430;-87
2021/07/24 07:06:05;;;;;;;20.60;13.40;;;25.40;46.00;;;;;;5020881;28;20851;-88
2021/07/24 07:08:32;;;;;;;22.57;14.70;;;25.40;45.70;;;;;;5019664;28;20478;-88
2021/07/24 07:11:02;;;;;;;20.93;15.37;;;25.60;45.10;;;;;;5020120;28;20443;-88
2021/07/24 07:13:30;;;;;;;23.30;13.87;;;25.80;44.60;;;;;;5021283;28;20426;-87
2021/07/24 07:15:57;;;;;;;25.97;15.77;;;26.10;44.20;;;;;;5019256;28;20513;-88
2021/07/24 07:18:24;;;;;;;35.00;16.57;;;26.50;43.60;;;;;;5020913;28;20477;-88
2021/07/24 07:20:53;;;;;;;25.80;14.83;;;26.30;43.60;;;;;;5021526;28;20435;-88
2021/07/24 07:23:20;;;;;;;31.47;15.37;;;26.40;44.20;;;;;;5020154;28;20504;-88
2021/07/24 07:25:47;;;;;;;24.50;13.97;;;26.60;43.70;;;;;;5020539;28;20505;-88
2021/07/24 07:28:14;;;;;;;22.77;13.40;;;26.60;43.50;;;;;;5019645;28;20441;-88
2021/07/24 07:30:41;;;;;;;21.77;13.90;;;27.00;42.60;;;;;;5019490;28;20498;-87
2021/07/24 07:33:08;;;;;;;27.13;13.50;;;26.90;42.60;;;;;;5018869;28;20536;-88
2021/07/24 07:35:35;;;;;;;20.97;12.53;;;27.10;42.40;;;;;;5019363;28;20457;-88
2021/07/24 07:38:04;;;;;;;25.57;13.67;;;27.50;41.50;;;;;;5021564;28;20506;-88
2021/07/24 07:40:31;;;;;;;22.87;13.37;;;27.20;41.20;;;;;;5032931;28;20484;-88
2021/07/24 07:42:58;;;;;;;18.87;11.97;;;26.90;42.40;;;;;;5033480;28;20461;-87
2021/07/24 07:45:25;;;;;;;20.10;12.27;;;26.50;42.80;;;;;;5033338;28;20508;-88
2021/07/24 07:47:52;;;;;;;35.23;13.83;;;26.30;43.40;;;;;;5029922;28;20545;-88
2021/07/24 07:50:19;;;;;;;19.60;12.20;;;26.30;43.30;;;;;;5022170;28;20802;-88
2021/07/24 07:52:46;;;;;;;23.97;13.33;;;26.60;43.40;;;;;;5021449;28;20544;-88
2021/07/24 07:55:15;;;;;;;20.23;12.47;;;26.60;42.90;;;;;;5019904;28;20452;-88
2021/07/24 07:57:42;;;;;;;21.40;13.27;;;27.20;42.60;;;;;;5018758;28;20464;-88
2021/07/24 08:00:10;;;;;;;19.97;12.83;;;27.60;41.50;;;;;;5017842;28;20457;-88
2021/07/24 08:02:37;;;;;;;26.90;13.53;;;27.70;41.40;;;;;;5018592;28;20481;-87
2021/07/24 08:05:05;;;;;;;22.10;12.60;;;27.70;41.60;;;;;;5019630;28;20813;-88
2021/07/24 08:07:32;;;;;;;18.53;12.53;;;27.60;41.80;;;;;;5019823;28;20481;-88
2021/07/24 08:09:59;;;;;;;21.07;12.73;;;27.70;41.00;;;;;;5017746;28;20438;-88
2021/07/24 08:12:27;;;;;;;23.10;12.20;;;27.80;40.50;;;;;;5018292;28;20459;-88
2021/07/24 08:14:56;;;;;;;24.47;14.17;;;27.40;41.80;;;;;;5020169;28;20516;-88
2021/07/24 08:17:23;;;;;;;21.23;13.80;;;26.90;43.10;;;;;;5024047;28;20481;-87
2021/07/24 08:19:50;;;;;;;27.83;11.67;;;26.90;43.60;;;;;;5021691;28;20446;-88
2021/07/24 08:22:17;;;;;;;27.33;13.63;;;26.60;44.10;;;;;;5018918;28;20517;-88
2021/07/24 08:24:43;;;;;;;34.73;12.80;;;26.40;45.50;;;;;;5018893;28;20537;-88
2021/07/24 08:27:10;;;;;;;23.50;12.37;;;26.70;45.30;;;;;;5017969;28;20477;-88
2021/07/24 08:29:39;;;;;;;25.20;14.43;;;27.30;43.60;;;;;;5017482;28;20500;-88
2021/07/24 08:32:10;;;;;;;26.23;14.03;;;27.80;43.40;;;;;;5017690;28;20454;-87
2021/07/24 08:34:37;;;;;;;22.00;14.30;;;28.00;42.70;;;;;;5018900;28;20411;-88
2021/07/24 08:37:06;;;;;;;24.10;12.20;;;28.20;42.40;;;;;;5019256;28;20481;-88
2021/07/24 08:39:35;;;;;;;26.03;13.00;;;28.40;41.00;;;;;;5019028;28;20438;-88
2021/07/24 08:42:02;;;;;;;21.77;12.77;;;28.70;40.30;;;;;;5016765;28;20462;-88
2021/07/24 08:44:30;;;;;;;26.40;11.43;;;28.90;40.20;;;;;;5017804;28;20966;-88
2021/07/24 08:46:58;;;;;;;21.30;11.30;;;29.10;39.60;;;;;;5018402;28;20572;-88
2021/07/24 08:49:25;;;;;;;29.00;11.60;;;29.00;38.70;;;;;;5017755;28;20453;-88
2021/07/24 08:51:55;;;;;;;24.60;12.00;;;29.10;38.40;;;;;;5017766;28;20461;-88
2021/07/24 08:54:22;;;;;;;27.80;10.90;;;29.30;38.70;;;;;;5018616;28;20912;-88
2021/07/24 08:56:50;;;;;;;20.03;10.43;;;29.40;37.30;;;;;;5017825;28;20534;-88
2021/07/24 08:59:19;;;;;;;15.47;10.10;;;29.50;36.60;;;;;;5017883;28;20450;-88
2021/07/24 09:01:53;;;;;;;34.87;11.13;;;29.60;36.30;;;;;;5017573;28;20867;-88
2021/07/24 09:04:22;;;;;;;25.00;10.40;;;29.70;37.50;;;;;;5016847;28;20442;-88
2021/07/24 09:06:52;;;;;;;17.77;10.70;;;29.90;36.80;;;;;;5017119;28;20528;-88
2021/07/24 09:09:20;;;;;;;15.70;10.23;;;30.10;36.10;;;;;;5019784;28;20469;-88
2021/07/24 09:11:47;;;;;;;18.83;10.43;;;29.90;35.20;;;;;;5026414;28;20474;-88
2021/07/24 09:14:14;;;;;;;20.30;10.80;;;29.90;35.60;;;;;;5031081;28;20461;-87
2021/07/24 09:16:42;;;;;;;20.90;10.57;;;29.60;34.90;;;;;;5031331;28;20438;-87
2021/07/24 09:19:10;;;;;;;18.43;10.63;;;29.40;36.80;;;;;;5031843;28;20510;-87
2021/07/24 09:21:39;;;;;;;19.60;11.67;;;29.50;37.10;;;;;;5022309;28;20883;-88
2021/07/24 09:24:20;;;;;;;28.53;11.17;;;29.60;36.40;;;;;;5021540;28;20434;-87
2021/07/24 09:26:47;;;;;;;18.27;11.40;;;29.30;37.30;;;;;;5018830;28;20532;-88
2021/07/24 09:29:16;;;;;;;14.07;9.57;;;29.70;37.60;;;;;;5020215;28;20469;-87
2021/07/24 09:31:44;;;;;;;23.40;10.13;;;30.20;36.00;;;;;;5027244;28;20481;-87
2021/07/24 09:34:13;;;;;;;17.97;10.10;;;30.60;35.80;;;;;;5021452;28;20445;-88
2021/07/24 09:36:43;;;;;;;23.27;10.17;;;31.20;35.00;;;;;;5020777;28;20536;-88
2021/07/24 09:39:11;;;;;;;26.43;9.83;;;31.30;34.20;;;;;;5021464;28;20583;-88
2021/07/24 09:41:39;;;;;;;19.87;9.90;;;31.50;34.60;;;;;;5028425;28;20454;-87
2021/07/24 09:44:06;;;;;;;18.93;9.90;;;31.30;34.00;;;;;;5029818;28;20450;-88
2021/07/24 09:46:34;;;;;;;36.83;10.30;;;31.50;34.00;;;;;;5027470;28;20486;-87
2021/07/24 09:49:11;;;;;;;23.87;10.00;;;31.10;34.50;;;;;;5024000;28;20454;-88
2021/07/24 09:51:41;;;;;;;16.40;9.70;;;30.60;34.80;;;;;;5027497;28;20489;-88
2021/07/24 09:54:26;;;;;;;22.50;8.80;;;30.20;35.30;;;;;;5024966;28;20430;-87
2021/07/24 09:56:53;;;;;;;18.17;9.13;;;30.20;34.60;;;;;;5026427;28;20442;-88
2021/07/24 09:59:22;;;;;;;15.67;7.90;;;30.10;35.20;;;;;;5026679;28;20457;-88
2021/07/24 10:01:54;;;;;;;21.37;8.93;;;30.50;35.10;;;;;;5043555;23;20486;-88
2021/07/24 10:04:29;;;;;;;17.00;8.37;;;30.40;34.80;;;;;;4997456;28;20526;-88
2021/07/24 10:06:59;;;;;;;23.63;7.77;;;30.20;34.00;;;;;;4996338;28;20572;-89
2021/07/24 10:09:29;;;;;;;16.13;8.10;;;30.50;35.20;;;;;;4995400;28;20457;-88
2021/07/24 10:11:57;;;;;;;16.40;8.33;;;31.10;33.90;;;;;;4995733;28;20447;-88
2021/07/24 10:14:24;;;;;;;19.00;7.80;;;31.80;32.60;;;;;;5003767;28;20451;-88
2021/07/24 10:16:52;;;;;;;21.90;8.30;;;31.80;31.80;;;;;;5012145;28;20933;-87
2021/07/24 10:19:20;;;;;;;23.37;8.47;;;32.20;29.90;;;;;;5014765;28;20450;-88
2021/07/24 10:21:47;;;;;;;18.13;8.00;;;32.20;30.50;;;;;;5012408;28;20493;-88
2021/07/24 10:24:16;;;;;;;17.63;7.87;;;32.00;30.80;;;;;;5011255;28;20455;-86
2021/07/24 10:26:50;;;;;;;14.33;8.63;;;31.80;31.40;;;;;;5014492;28;20463;-88
2021/07/24 10:29:19;;;;;;;13.00;7.83;;;32.20;31.00;;;;;;5010810;28;20503;-88
2021/07/24 10:31:53;;;;;;;14.07;7.87;;;32.40;30.20;;;;;;5001493;28;20478;-88
2021/07/24 10:34:25;;;;;;;18.70;7.30;;;31.90;30.80;;;;;;5004525;28;20419;-88
2021/07/24 10:36:52;;;;;;;16.83;8.00;;;31.80;31.40;;;;;;5003962;28;20442;-87
2021/07/24 10:39:22;;;;;;;18.70;7.90;;;31.60;31.30;;;;;;5003799;28;20885;-89
2021/07/24 10:41:50;;;;;;;14.90;7.40;;;31.20;31.00;;;;;;5003503;28;20469;-88
2021/07/24 10:44:39;;;;;;;15.60;8.30;;;31.40;32.20;;;;;;5006555;28;20438;-87
2021/07/24 10:47:15;;;;;;;12.40;7.23;;;31.40;31.10;;;;;;5001220;28;20540;-88
2021/07/24 10:49:59;;;;;;;14.60;7.30;;;31.20;31.00;;;;;;5003350;28;20473;-88
2021/07/24 10:52:26;;;;;;;18.30;8.10;;;30.70;31.80;;;;;;5001012;28;20520;-88
2021/07/24 10:55:16;;;;;;;19.10;7.63;;;30.70;32.20;;;;;;5001443;28;20443;-89
2021/07/24 10:58:07;;;;;;;13.37;7.20;;;31.30;32.00;;;;;;5002143;28;20892;-89
2021/07/24 11:00:50;;;;;;;15.57;6.70;;;31.80;31.20;;;;;;5001055;28;20441;-88
2021/07/24 11:03:46;;;;;;;23.63;8.83;;;32.00;30.60;;;;;;5000627;28;20478;-88
2021/07/24 11:06:30;;;;;;;11.57;6.57;;;31.60;29.50;;;;;;4966158;28;20510;-88
2021/07/24 11:09:28;;;;;;;23.30;7.77;;;31.40;30.10;;;;;;5000275;28;20489;-88
2021/07/24 11:12:07;;;;;;;23.43;7.80;;;31.00;30.80;;;;;;5000499;28;20458;-89
2021/07/24 11:14:55;;;;;;;15.03;7.00;;;31.10;30.90;;;;;;5000652;28;20542;-88
2021/07/24 11:17:23;;;;;;;15.73;7.70;;;30.30;31.40;;;;;;5001182;28;20572;-87
2021/07/24 11:20:35;;;;;;;27.10;7.20;;;30.30;31.10;;;;;;4999955;28;20459;-88
2021/07/24 11:23:09;;;;;;;14.13;7.67;;;30.50;30.50;;;;;;5000416;28;20479;-88
2021/07/24 11:25:40;;;;;;;23.93;7.30;;;30.10;31.70;;;;;;5000513;28;20441;-87
2021/07/24 11:28:10;;;;;;;12.57;7.73;;;29.90;32.10;;;;;;5000246;28;20482;-89
2021/07/24 11:30:37;;;;;;;12.53;7.40;;;29.80;32.40;;;;;;5000297;28;20985;-88
2021/07/24 11:33:05;;;;;;;14.00;7.67;;;29.40;33.10;;;;;;5000101;28;20478;-88
2021/07/24 11:35:37;;;;;;;13.57;7.03;;;29.40;32.90;;;;;;5000430;28;20451;-88
2021/07/24 11:38:04;;;;;;;14.03;7.27;;;29.10;33.70;;;;;;5001737;28;20435;-88
2021/07/24 11:40:33;;;;;;;20.77;6.80;;;29.00;32.90;;;;;;4999969;28;20486;-87
2021/07/24 11:43:03;;;;;;;15.83;7.00;;;29.10;33.20;;;;;;5010980;23;20491;-88
2021/07/24 11:45:33;;;;;;;13.43;7.33;;;29.40;33.30;;;;;;5006007;28;20450;-88
2021/07/24 11:48:09;;;;;;;14.70;7.20;;;29.80;32.70;;;;;;4997016;28;21003;-87
2021/07/24 11:50:36;;;;;;;22.20;7.67;;;30.20;31.70;;;;;;4996380;28;20447;-86
2021/07/24 11:53:04;;;;;;;19.80;7.33;;;30.40;31.30;;;;;;5001508;28;20490;-86
2021/07/24 11:55:33;;;;;;;13.77;6.90;;;31.00;30.80;;;;;;4999459;28;20529;-87
2021/07/24 11:58:04;;;;;;;14.27;6.97;;;31.20;30.90;;;;;;4998344;28;20479;-87
2021/07/24 12:00:34;;;;;;;10.90;6.53;;;31.30;29.50;;;;;;4997424;28;20431;-86
2021/07/24 12:03:26;;;;;;;13.57;7.40;;;31.30;30.50;;;;;;4997845;28;20474;-86
2021/07/24 12:05:57;;;;;;;13.83;6.73;;;31.20;30.10;;;;;;4986976;28;20455;-87
2021/07/24 12:08:27;;;;;;;15.23;7.70;;;31.20;30.50;;;;;;4999971;28;20505;-89
2021/07/24 12:10:55;;;;;;;15.30;6.90;;;31.00;30.70;;;;;;4999741;28;20450;-87
2021/07/24 12:13:23;;;;;;;21.03;8.20;;;31.30;31.00;;;;;;4996896;28;20466;-87
2021/07/24 12:16:04;;;;;;;15.40;7.70;;;31.40;30.20;;;;;;4996641;28;20440;-87
2021/07/24 12:18:40;;;;;;;13.03;6.80;;;31.30;31.00;;;;;;5002935;28;20483;-87
2021/07/24 12:21:15;;;;;;;16.43;7.13;;;31.50;29.60;;;;;;5002481;28;20819;-88
2021/07/24 12:23:53;;;;;;;12.00;6.90;;;31.60;30.10;;;;;;5001960;28;20498;-88
2021/07/24 12:26:22;;;;;;;20.50;8.10;;;31.80;29.80;;;;;;5001677;28;20439;-87
2021/07/24 12:28:49;;;;;;;12.70;7.40;;;31.60;31.30;;;;;;5001280;28;20824;-87
2021/07/24 12:31:18;;;;;;;16.67;7.73;;;31.60;31.30;;;;;;4998202;28;20447;-88
2021/07/24 12:33:50;;;;;;;12.43;6.97;;;31.50;31.20;;;;;;4997416;28;20537;-88
2021/07/24 12:36:19;;;;;;;22.70;7.73;;;32.00;31.50;;;;;;4997603;28;20442;-88
2021/07/24 12:38:46;;;;;;;15.87;7.10;;;31.50;30.20;;;;;;4996855;28;20478;-88
2021/07/24 12:41:13;;;;;;;21.00;6.63;;;31.20;30.20;;;;;;4996144;28;20439;-88